createdAt,value
2023-10-16T00:01:33.244Z,1.67
2023-10-16T00:04:00.379Z,2.72
2023-10-16T00:06:27.275Z,1.63
2023-10-16T00:08:54.826Z,1.90
2023-10-16T00:11:25.906Z,1.67
2023-10-16T00:13:54.139Z,1.85
2023-10-16T00:16:23.293Z,1.70
2023-10-16T00:18:54.174Z,1.90
2023-10-16T00:21:21.012Z,1.95
2023-10-16T00:23:47.613Z,1.83
2023-10-16T00:26:21.036Z,1.73
2023-10-16T00:29:10.947Z,1.88
2023-10-16T00:31:44.313Z,1.67
2023-10-16T00:34:11.764Z,1.95
2023-10-16T00:36:38.535Z,2.13
2023-10-16T00:39:14.972Z,1.98
2023-10-16T00:41:45.377Z,1.63
2023-10-16T00:44:12.193Z,1.77
2023-10-16T00:46:39.661Z,1.73
2023-10-16T00:49:08.434Z,1.40
2023-10-16T00:51:41.716Z,1.67
2023-10-16T00:54:23.568Z,1.45
2023-10-16T00:56:50.698Z,1.70
2023-10-16T00:59:18.374Z,1.50
2023-10-16T01:01:46.237Z,1.40
2023-10-16T01:04:18.491Z,1.75
2023-10-16T01:06:46.157Z,1.60
2023-10-16T01:09:23.934Z,1.70
2023-10-16T01:11:55.588Z,1.45
2023-10-16T01:14:22.413Z,1.38
2023-10-16T01:16:50.471Z,1.60
2023-10-16T01:19:21.348Z,1.88
2023-10-16T01:21:49.652Z,1.77
2023-10-16T01:24:18.016Z,1.50
2023-10-16T01:26:45.862Z,1.10
2023-10-16T01:29:14.340Z,1.20
2023-10-16T01:31:41.670Z,1.73
2023-10-16T01:34:14.293Z,1.20
2023-10-16T01:36:47.802Z,1.40
2023-10-16T01:39:33.791Z,1.30
2023-10-16T01:42:10.110Z,1.40
2023-10-16T01:44:36.697Z,1.70
2023-10-16T01:47:06.985Z,1.42
2023-10-16T01:49:33.703Z,1.13
2023-10-16T01:52:00.386Z,1.10
2023-10-16T01:54:27.400Z,1.10
2023-10-16T01:56:54.764Z,1.25
2023-10-16T01:59:22.400Z,1.98
2023-10-16T02:01:49.323Z,1.20
2023-10-16T02:04:21.034Z,1.48
2023-10-16T02:06:49.969Z,1.40
2023-10-16T02:09:24.116Z,2.03
2023-10-16T02:11:51.178Z,1.67
2023-10-16T02:14:17.758Z,1.90
2023-10-16T02:16:48.228Z,1.70
2023-10-16T02:19:14.857Z,1.80
2023-10-16T02:21:41.941Z,1.80
2023-10-16T02:24:08.829Z,1.65
2023-10-16T02:26:54.229Z,1.60
2023-10-16T02:29:20.865Z,2.08
2023-10-16T02:31:47.445Z,1.58
2023-10-16T02:34:15.189Z,1.85
2023-10-16T02:36:43.723Z,1.73
2023-10-16T02:39:11.281Z,1.80
2023-10-16T02:41:38.029Z,2.00
2023-10-16T02:44:06.632Z,1.90
2023-10-16T02:46:33.283Z,1.75
2023-10-16T02:49:01.781Z,2.03
2023-10-16T02:51:28.460Z,1.50
2023-10-16T02:53:55.754Z,1.55
2023-10-16T02:56:26.254Z,2.00
2023-10-16T02:58:58.691Z,3.50
2023-10-16T03:01:25.415Z,2.45
2023-10-16T03:03:53.622Z,2.15
2023-10-16T03:06:20.719Z,1.90
2023-10-16T03:08:50.438Z,2.33
2023-10-16T03:11:18.305Z,1.85
2023-10-16T03:13:48.830Z,2.20
2023-10-16T03:16:24.210Z,2.92
2023-10-16T03:18:51.629Z,2.00
2023-10-16T03:21:18.346Z,2.30
2023-10-16T03:23:46.959Z,2.28
2023-10-16T03:26:26.567Z,2.40
2023-10-16T03:28:57.488Z,2.40
2023-10-16T03:31:25.486Z,2.20
2023-10-16T03:33:55.050Z,2.65
2023-10-16T03:36:22.659Z,2.55
2023-10-16T03:38:53.008Z,2.30
2023-10-16T03:41:23.039Z,2.15
2023-10-16T03:44:00.277Z,3.00
2023-10-16T03:46:30.422Z,2.25
2023-10-16T03:48:58.561Z,2.20
2023-10-16T03:51:25.768Z,2.22
2023-10-16T03:53:53.863Z,2.50
2023-10-16T03:56:21.423Z,2.42
2023-10-16T03:58:48.916Z,2.78
2023-10-16T04:01:25.125Z,2.30
2023-10-16T04:03:57.499Z,2.35
2023-10-16T04:06:26.783Z,2.67
2023-10-16T04:08:54.730Z,3.13
2023-10-16T04:11:24.449Z,3.28
2023-10-16T04:13:53.971Z,2.88
2023-10-16T04:16:43.828Z,2.90
2023-10-16T04:19:14.052Z,3.50
2023-10-16T04:21:45.241Z,2.70
2023-10-16T04:24:32.000Z,2.80
2023-10-16T04:29:55.988Z,3.05
2023-10-16T04:32:41.068Z,3.25
2023-10-16T04:35:27.041Z,2.63
2023-10-16T04:37:56.489Z,3.00
2023-10-16T04:40:42.398Z,2.75
2023-10-16T04:43:14.543Z,2.83
2023-10-16T04:45:55.691Z,2.80
2023-10-16T04:48:36.608Z,3.50
2023-10-16T04:51:41.673Z,3.72
2023-10-16T04:54:29.157Z,3.15
2023-10-16T04:57:04.550Z,3.33
2023-10-16T05:00:01.036Z,3.03
2023-10-16T05:02:42.799Z,3.08
2023-10-16T05:05:28.108Z,3.17
2023-10-16T05:07:54.913Z,3.38
2023-10-16T05:10:41.158Z,3.33
2023-10-16T05:13:40.730Z,3.58
2023-10-16T05:16:26.251Z,3.53
2023-10-16T05:19:04.350Z,3.45
2023-10-16T05:22:08.893Z,3.55
2023-10-16T05:24:54.323Z,3.75
2023-10-16T05:27:39.898Z,3.72
2023-10-16T05:30:25.797Z,3.75
2023-10-16T05:33:12.137Z,3.83
2023-10-16T05:35:57.289Z,4.05
2023-10-16T05:38:42.537Z,4.45
2023-10-16T05:41:29.676Z,4.47
2023-10-16T05:44:15.334Z,5.13
2023-10-16T05:47:01.665Z,4.30
2023-10-16T05:49:47.483Z,4.65
2023-10-16T05:52:32.882Z,4.72
2023-10-16T05:55:17.943Z,4.40
2023-10-16T05:58:07.053Z,4.90
2023-10-16T06:00:52.865Z,4.38
2023-10-16T06:03:39.002Z,4.85
2023-10-16T06:06:24.748Z,4.07
2023-10-16T06:09:10.160Z,4.45
2023-10-16T06:11:55.423Z,4.18
2023-10-16T06:14:22.276Z,4.15
2023-10-16T06:16:55.770Z,4.32
2023-10-16T06:19:25.788Z,4.65
2023-10-16T06:22:07.792Z,3.80
2023-10-16T06:24:36.702Z,4.30
2023-10-16T06:27:10.265Z,4.60
2023-10-16T06:29:42.276Z,4.00
2023-10-16T06:32:19.939Z,4.07
2023-10-16T06:34:48.365Z,3.90
2023-10-16T06:37:18.339Z,4.00
2023-10-16T06:39:56.252Z,4.63
2023-10-16T06:42:23.398Z,4.28
2023-10-16T06:45:04.430Z,4.18
2023-10-16T06:47:37.732Z,3.78
2023-10-16T06:50:26.613Z,4.13
2023-10-16T06:52:54.930Z,3.92
2023-10-16T06:55:25.372Z,4.57
2023-10-16T06:57:52.299Z,4.68
2023-10-16T07:00:29.269Z,4.63
2023-10-16T07:02:58.308Z,4.40
2023-10-16T07:05:26.624Z,4.25
2023-10-16T07:07:57.720Z,4.32
2023-10-16T07:10:26.311Z,4.57
2023-10-16T07:13:03.772Z,4.70
2023-10-16T07:15:31.459Z,4.32
2023-10-16T07:18:05.970Z,4.28
2023-10-16T07:20:35.589Z,4.72
2023-10-16T07:23:03.293Z,4.50
2023-10-16T07:25:38.982Z,4.85
2023-10-16T07:28:10.591Z,4.13
2023-10-16T07:30:46.392Z,4.20
2023-10-16T07:33:17.164Z,4.50
2023-10-16T07:35:47.396Z,5.25
2023-10-16T07:38:20.528Z,6.97
2023-10-16T07:40:57.929Z,7.07
2023-10-16T07:43:29.638Z,5.57
2023-10-16T07:46:13.267Z,6.80
2023-10-16T07:48:45.260Z,5.72
2023-10-16T07:51:13.532Z,5.78
2023-10-16T07:53:40.578Z,8.98
2023-10-16T07:56:26.509Z,8.57
2023-10-16T07:59:07.179Z,7.57
2023-10-16T08:01:44.499Z,5.68
2023-10-16T08:04:33.076Z,7.15
2023-10-16T08:07:20.449Z,9.18
2023-10-16T08:09:50.212Z,6.43
2023-10-16T08:12:20.001Z,6.18
2023-10-16T08:14:55.293Z,5.30
2023-10-16T08:17:25.473Z,4.50
2023-10-16T08:19:52.524Z,4.05
2023-10-16T08:22:23.798Z,4.05
2023-10-16T08:24:59.717Z,3.42
2023-10-16T08:27:39.835Z,3.90
2023-10-16T08:30:19.660Z,4.20
2023-10-16T08:32:54.525Z,7.28
2023-10-16T08:35:21.729Z,8.30
2023-10-16T08:37:59.105Z,10.27
2023-10-16T08:40:36.469Z,7.57
2023-10-16T08:43:09.247Z,11.20
2023-10-16T08:45:40.815Z,6.50
2023-10-16T08:48:09.300Z,3.17
2023-10-16T08:50:43.360Z,3.50
2023-10-16T08:53:33.096Z,2.80
2023-10-16T08:56:10.851Z,2.83
2023-10-16T08:58:42.546Z,2.42
2023-10-16T09:01:10.621Z,2.45
2023-10-16T09:03:45.490Z,2.35
2023-10-16T09:06:22.251Z,2.50
2023-10-16T09:08:49.898Z,2.47
2023-10-16T09:11:17.878Z,1.95
2023-10-16T09:13:50.496Z,2.30
2023-10-16T09:16:22.053Z,1.70
2023-10-16T09:18:48.993Z,2.08
2023-10-16T09:21:23.966Z,1.85
2023-10-16T09:23:54.354Z,1.58
2023-10-16T09:26:30.255Z,1.75
2023-10-16T09:29:05.150Z,2.15
2023-10-16T09:31:32.863Z,1.80
2023-10-16T09:33:59.653Z,1.52
2023-10-16T09:36:31.176Z,1.50
2023-10-16T09:39:01.053Z,1.60
2023-10-16T09:41:27.941Z,1.60
2023-10-16T09:44:09.947Z,1.60
2023-10-16T09:46:43.855Z,1.80
2023-10-16T09:49:12.302Z,1.83
2023-10-16T09:51:48.259Z,1.70
2023-10-16T09:54:24.605Z,1.58
2023-10-16T09:56:59.661Z,1.73
2023-10-16T09:59:33.329Z,1.67
2023-10-16T10:02:11.976Z,1.33
2023-10-16T10:04:44.477Z,1.83
2023-10-16T10:07:14.291Z,1.30
2023-10-16T10:09:46.037Z,1.33
2023-10-16T10:12:38.857Z,1.40
2023-10-16T10:15:13.369Z,1.20
2023-10-16T10:17:41.809Z,1.40
2023-10-16T10:20:10.341Z,1.35
2023-10-16T10:22:38.241Z,1.42
2023-10-16T10:25:23.698Z,1.70
2023-10-16T10:27:51.097Z,1.42
2023-10-16T10:30:27.293Z,1.17
2023-10-16T10:35:39.764Z,1.83
2023-10-16T10:38:22.857Z,1.50
2023-10-16T10:41:12.633Z,1.40
2023-10-16T10:43:58.466Z,1.38
2023-10-16T10:46:29.835Z,1.50
2023-10-16T10:48:58.270Z,1.95
2023-10-16T10:51:30.951Z,1.50
2023-10-16T10:53:59.188Z,1.20
2023-10-16T10:57:06.083Z,1.30
2023-10-16T10:59:42.980Z,1.47
2023-10-16T11:02:20.480Z,1.30
2023-10-16T11:04:54.911Z,1.30
2023-10-16T11:07:40.917Z,1.40
2023-10-16T11:10:08.625Z,1.30
2023-10-16T11:12:35.481Z,1.42
2023-10-16T11:15:07.133Z,1.50
2023-10-16T11:17:35.676Z,1.20
2023-10-16T11:20:28.410Z,2.25
2023-10-16T11:22:57.871Z,1.75
2023-10-16T11:25:30.341Z,1.20
2023-10-16T11:28:08.242Z,1.52
2023-10-16T11:30:39.924Z,1.50
2023-10-16T11:33:10.424Z,1.40
2023-10-16T11:35:37.232Z,1.10
2023-10-16T11:38:20.849Z,1.30
2023-10-16T11:40:49.690Z,1.30
2023-10-16T11:43:20.432Z,1.30
2023-10-16T11:46:05.849Z,1.30
2023-10-16T11:48:35.360Z,0.95
2023-10-16T11:51:17.823Z,1.42
2023-10-16T11:53:47.356Z,1.10
2023-10-16T11:56:14.491Z,1.10
2023-10-16T11:58:41.775Z,1.65
2023-10-16T12:01:32.857Z,4.53
2023-10-16T12:03:59.472Z,1.30
2023-10-16T12:06:26.224Z,1.35
2023-10-16T12:08:52.910Z,1.25
2023-10-16T12:11:19.863Z,1.02
2023-10-16T12:13:48.167Z,1.05
2023-10-16T12:16:28.535Z,0.90
2023-10-16T12:21:29.803Z,0.98
2023-10-16T12:23:58.472Z,1.10
2023-10-16T12:26:26.480Z,1.48
2023-10-16T12:28:53.042Z,0.98
2023-10-16T12:31:20.470Z,1.20
2023-10-16T12:33:47.447Z,1.35
2023-10-16T12:36:14.186Z,2.45
2023-10-16T12:38:40.752Z,1.92
2023-10-16T12:41:12.590Z,1.55
2023-10-16T12:43:39.171Z,1.45
2023-10-16T12:46:08.412Z,1.30
2023-10-16T12:48:35.175Z,1.15
2023-10-16T12:56:18.212Z,1.48
2023-10-16T12:58:44.822Z,1.02
2023-10-16T13:01:11.839Z,1.00
2023-10-16T13:03:39.034Z,1.60
2023-10-16T13:06:08.848Z,1.20
2023-10-16T13:08:35.605Z,1.50
2023-10-16T13:11:02.479Z,1.10
2023-10-16T13:13:29.109Z,1.65
2023-10-16T13:15:55.894Z,1.10
2023-10-16T13:18:29.174Z,1.52
2023-10-16T13:20:59.046Z,1.40
2023-10-16T13:23:34.917Z,1.45
2023-10-16T13:26:12.312Z,1.10
2023-10-16T13:28:42.444Z,1.15
2023-10-16T13:31:10.287Z,1.00
2023-10-16T13:33:42.258Z,1.15
2023-10-16T13:36:12.848Z,1.30
2023-10-16T13:38:40.630Z,1.20
2023-10-16T13:41:19.457Z,1.42
2023-10-16T13:43:46.884Z,1.30
2023-10-16T13:46:14.877Z,1.30
2023-10-16T13:48:47.515Z,1.30
2023-10-16T13:51:17.369Z,1.40
2023-10-16T13:53:50.282Z,1.30
2023-10-16T13:56:20.036Z,1.20
2023-10-16T13:58:47.061Z,1.02
2023-10-16T14:01:15.573Z,1.23
2023-10-16T14:03:43.841Z,1.23
2023-10-16T14:06:13.936Z,1.30
2023-10-16T14:08:42.621Z,1.30
2023-10-16T14:11:15.479Z,1.35
2023-10-16T14:13:42.149Z,1.30
2023-10-16T14:16:11.407Z,1.23
2023-10-16T14:18:45.452Z,1.20
2023-10-16T14:21:13.745Z,1.30
2023-10-16T14:23:41.388Z,1.85
2023-10-16T14:26:25.502Z,1.20
2023-10-16T14:28:53.692Z,1.27
2023-10-16T14:31:26.422Z,1.45
2023-10-16T14:33:56.954Z,1.88
2023-10-16T14:36:26.301Z,1.50
2023-10-16T14:38:55.369Z,1.30
2023-10-16T14:41:24.323Z,1.67
2023-10-16T14:43:55.428Z,1.33
2023-10-16T14:46:23.988Z,1.83
2023-10-16T14:48:51.408Z,1.50
2023-10-16T14:51:18.385Z,1.00
2023-10-16T14:53:49.864Z,1.58
2023-10-16T14:56:20.221Z,1.10
2023-10-16T15:01:18.967Z,1.20
2023-10-16T15:03:47.850Z,1.50
2023-10-16T15:06:16.309Z,1.20
2023-10-16T15:08:46.796Z,1.10
2023-10-16T15:11:14.442Z,1.40
2023-10-16T15:13:43.599Z,1.00
2023-10-16T15:16:11.442Z,1.10
2023-10-16T15:18:41.547Z,1.10
2023-10-16T15:21:08.273Z,1.13
2023-10-16T15:23:35.317Z,1.10
2023-10-16T15:26:02.515Z,1.15
2023-10-16T15:28:44.389Z,1.10
2023-10-16T15:31:15.609Z,0.93
2023-10-16T15:33:44.858Z,0.90
2023-10-16T15:36:13.186Z,1.17
2023-10-16T15:38:40.308Z,1.08
2023-10-16T15:41:10.658Z,1.27
2023-10-16T15:43:37.581Z,1.67
2023-10-16T15:46:04.834Z,1.58
2023-10-16T15:48:31.793Z,1.85
2023-10-16T15:50:58.444Z,2.15
2023-10-16T15:53:26.819Z,1.50
2023-10-16T15:55:53.725Z,1.65
2023-10-16T15:58:22.333Z,1.85
2023-10-16T16:00:49.653Z,2.65
2023-10-16T16:03:16.433Z,2.30
2023-10-16T16:05:43.190Z,2.70
2023-10-16T16:08:10.430Z,3.10
2023-10-16T16:10:41.350Z,2.67
2023-10-16T16:13:08.218Z,2.55
2023-10-16T16:15:37.683Z,2.78
2023-10-16T16:18:07.206Z,3.17
2023-10-16T16:20:34.440Z,3.38
2023-10-16T16:23:04.284Z,3.58
2023-10-16T16:25:35.919Z,4.65
2023-10-16T16:28:03.570Z,4.93
2023-10-16T16:30:31.193Z,4.28
2023-10-16T16:32:58.523Z,4.03
2023-10-16T16:35:26.638Z,3.67
2023-10-16T16:37:58.048Z,3.63
2023-10-16T16:40:25.095Z,2.20
2023-10-16T16:42:52.435Z,1.98
2023-10-16T16:45:22.098Z,2.20
2023-10-16T16:47:49.965Z,1.98
2023-10-16T16:50:18.669Z,1.80
2023-10-16T16:52:46.294Z,2.47
2023-10-16T16:55:14.269Z,1.70
2023-10-16T16:57:41.674Z,2.17
2023-10-16T17:00:11.600Z,2.00
2023-10-16T17:02:42.128Z,2.35
2023-10-16T17:05:12.531Z,1.83
2023-10-16T17:07:40.480Z,2.33
2023-10-16T17:10:10.610Z,1.90
2023-10-16T17:12:38.312Z,1.52
2023-10-16T17:15:08.238Z,1.73
2023-10-16T17:17:35.080Z,1.80
2023-10-16T17:20:01.852Z,1.70
2023-10-16T17:22:44.392Z,1.88
2023-10-16T17:25:16.116Z,2.17
2023-10-16T17:27:43.953Z,2.58
2023-10-16T17:30:14.053Z,2.40
2023-10-16T17:32:42.051Z,2.80
2023-10-16T17:35:12.610Z,2.63
2023-10-16T17:37:41.339Z,2.80
2023-10-16T17:40:11.153Z,2.80
2023-10-16T17:42:37.962Z,2.35
2023-10-16T17:45:06.576Z,2.05
2023-10-16T17:47:35.120Z,2.55
2023-10-16T17:50:02.683Z,2.30
2023-10-16T17:52:35.222Z,3.00
2023-10-16T17:55:05.784Z,3.65
2023-10-16T17:57:35.993Z,1.95
2023-10-16T18:00:09.106Z,2.22
2023-10-16T18:02:38.177Z,2.20
2023-10-16T18:05:06.180Z,2.70
2023-10-16T18:07:32.898Z,2.55
2023-10-16T18:10:00.652Z,2.72
2023-10-16T18:12:27.232Z,2.63
2023-10-16T18:14:54.078Z,2.40
2023-10-16T18:17:23.570Z,3.03
2023-10-16T18:19:50.246Z,2.70
2023-10-16T18:22:16.849Z,2.15
2023-10-16T18:24:45.132Z,2.60
2023-10-16T18:27:15.106Z,2.50
2023-10-16T18:29:44.484Z,3.10
2023-10-16T18:32:11.665Z,3.97
2023-10-16T18:34:38.379Z,4.07
2023-10-16T18:37:06.418Z,4.15
2023-10-16T18:39:33.953Z,4.25
2023-10-16T18:42:00.597Z,4.07
2023-10-16T18:44:28.008Z,4.82
2023-10-16T18:46:55.151Z,4.93
2023-10-16T18:49:21.739Z,4.60
2023-10-16T18:51:49.616Z,4.93
2023-10-16T18:54:16.294Z,4.90
2023-10-16T18:56:43.269Z,4.43
2023-10-16T18:59:10.132Z,4.90
2023-10-16T19:01:36.925Z,4.55
2023-10-16T19:04:03.868Z,4.20
2023-10-16T19:06:30.543Z,4.45
2023-10-16T19:08:58.036Z,4.32
2023-10-16T19:11:24.723Z,4.82
2023-10-16T19:13:51.506Z,4.72
2023-10-16T19:16:19.036Z,4.00
2023-10-16T19:18:45.729Z,4.35
2023-10-16T19:21:12.692Z,4.40
2023-10-16T19:23:39.979Z,4.50
2023-10-16T19:26:14.324Z,6.38
2023-10-16T19:28:42.095Z,4.65
2023-10-16T19:31:14.800Z,4.80
2023-10-16T19:33:42.601Z,5.00
2023-10-16T19:36:15.420Z,5.43
2023-10-16T19:38:43.204Z,5.32
2023-10-16T19:41:09.894Z,5.07
2023-10-16T19:43:36.590Z,5.03
2023-10-16T19:46:03.238Z,5.22
2023-10-16T19:48:30.578Z,5.03
2023-10-16T19:51:00.204Z,4.93
2023-10-16T19:53:30.481Z,5.30
2023-10-16T19:55:57.761Z,4.88
2023-10-16T19:58:24.529Z,5.13
2023-10-16T20:00:51.259Z,6.00
2023-10-16T20:03:19.817Z,7.63
2023-10-16T20:05:46.825Z,7.55
2023-10-16T20:08:13.546Z,7.40
2023-10-16T20:10:42.989Z,5.90
2023-10-16T20:13:13.738Z,5.65
2023-10-16T20:15:40.422Z,6.22
2023-10-16T20:18:13.688Z,5.80
2023-10-16T20:20:40.526Z,6.30
2023-10-16T20:23:09.101Z,6.13
2023-10-16T20:25:38.015Z,6.70
2023-10-16T20:28:06.844Z,5.72
2023-10-16T20:30:36.972Z,6.05
2023-10-16T20:33:07.378Z,5.90
2023-10-16T20:35:35.277Z,5.80
2023-10-16T20:38:03.852Z,5.63
2023-10-16T20:40:32.119Z,8.60
2023-10-16T20:42:58.777Z,4.93
2023-10-16T20:45:26.744Z,5.22
2023-10-16T20:47:54.377Z,5.47
2023-10-16T20:50:22.650Z,5.43
2023-10-16T20:52:49.637Z,5.15
2023-10-16T20:55:19.377Z,5.03
2023-10-16T20:57:47.447Z,5.13
2023-10-16T21:00:14.834Z,4.95
2023-10-16T21:02:43.445Z,4.07
2023-10-16T21:05:14.048Z,4.40
2023-10-16T21:07:41.674Z,4.03
2023-10-16T21:10:11.481Z,4.10
2023-10-16T21:12:39.094Z,4.10
2023-10-16T21:15:06.263Z,4.30
2023-10-16T21:17:32.950Z,15.13
2023-10-16T21:19:59.655Z,11.45
2023-10-16T21:22:28.085Z,5.85
2023-10-16T21:24:55.852Z,5.05
2023-10-16T21:27:25.793Z,4.15
2023-10-16T21:29:52.678Z,4.07
2023-10-16T21:32:22.694Z,3.80
2023-10-16T21:34:52.684Z,3.75
2023-10-16T21:37:19.687Z,3.95
2023-10-16T21:39:48.039Z,3.65
2023-10-16T21:42:15.428Z,3.78
2023-10-16T21:44:42.358Z,3.80
2023-10-16T21:47:10.404Z,3.85
2023-10-16T21:49:38.454Z,3.42
2023-10-16T21:52:05.420Z,3.15
2023-10-16T21:54:32.699Z,3.30
2023-10-16T21:57:00.185Z,3.35
2023-10-16T21:59:27.917Z,3.58
2023-10-16T22:01:55.052Z,3.70
2023-10-16T22:04:21.973Z,3.67
2023-10-16T22:06:49.461Z,3.15
2023-10-16T22:09:16.629Z,3.25
2023-10-16T22:11:45.040Z,3.00
2023-10-16T22:14:21.141Z,3.38
2023-10-16T22:16:48.871Z,3.60
2023-10-16T22:19:16.678Z,3.22
2023-10-16T22:21:44.007Z,3.95
2023-10-16T22:24:13.424Z,3.70
2023-10-16T22:26:40.983Z,3.70
2023-10-16T22:29:08.378Z,3.28
2023-10-16T22:31:36.483Z,3.42
2023-10-16T22:34:04.038Z,3.42
2023-10-16T22:36:32.738Z,3.40
2023-10-16T22:39:00.199Z,3.38
2023-10-16T22:41:29.630Z,4.05
2023-10-16T22:43:58.614Z,3.15
2023-10-16T22:46:28.727Z,3.70
2023-10-16T22:48:55.800Z,7.47
2023-10-16T22:51:23.265Z,3.33
2023-10-16T22:53:50.781Z,3.45
2023-10-16T22:56:18.074Z,3.15
2023-10-16T22:58:46.390Z,3.67
2023-10-16T23:01:13.499Z,3.42
2023-10-16T23:03:40.433Z,3.70
2023-10-16T23:06:07.864Z,3.03
2023-10-16T23:08:39.987Z,2.90
2023-10-16T23:11:37.327Z,2.83
2023-10-16T23:14:03.917Z,3.30
2023-10-16T23:16:30.554Z,2.80
2023-10-16T23:18:57.292Z,2.60
2023-10-16T23:21:27.545Z,2.90
2023-10-16T23:23:55.792Z,3.08
2023-10-16T23:26:22.663Z,2.85
2023-10-16T23:28:50.762Z,2.85
2023-10-16T23:31:17.485Z,2.90
2023-10-16T23:33:57.688Z,3.00
2023-10-16T23:36:27.652Z,3.53
2023-10-16T23:38:54.635Z,2.70
2023-10-16T23:41:38.588Z,2.70
2023-10-16T23:44:20.709Z,2.60
2023-10-16T23:46:56.448Z,2.95
2023-10-16T23:49:25.525Z,3.30
2023-10-16T23:51:56.712Z,3.22
2023-10-16T23:54:41.601Z,3.20
2023-10-16T23:57:23.385Z,2.55
2023-10-16T23:59:50.245Z,2.95
